sensor_id;sensor_type;location;lat;lon;timestamp;P1;durP1;ratioP1;P2;durP2;ratioP2
20729;SDS011;10526;50.850;12.928;2023-04-24T00:01:37;1.65;;;1.00;;
20729;SDS011;10526;50.850;12.928;2023-04-24T00:06:00;1.48;;;0.45;;
20729;SDS011;10526;50.850;12.928;2023-04-24T00:10:24;0.63;;;0.32;;
20729;SDS011;10526;50.850;12.928;2023-04-24T00:14:46;0.60;;;0.57;;
20729;SDS011;10526;50.850;12.928;2023-04-24T00:19:07;0.70;;;0.70;;
20729;SDS011;10526;50.850;12.928;2023-04-24T00:23:30;0.85;;;0.60;;
20729;SDS011;10526;50.850;12.928;2023-04-24T00:27:52;0.95;;;0.65;;
20729;SDS011;10526;50.850;12.928;2023-04-24T00:32:15;2.22;;;1.00;;
20729;SDS011;10526;50.850;12.928;2023-04-24T00:36:39;1.90;;;0.80;;
20729;SDS011;10526;50.850;12.928;2023-04-24T00:41:01;2.60;;;0.82;;
20729;SDS011;10526;50.850;12.928;2023-04-24T00:45:23;3.53;;;0.77;;
20729;SDS011;10526;50.850;12.928;2023-04-24T00:49:45;2.10;;;1.02;;
20729;SDS011;10526;50.850;12.928;2023-04-24T00:54:08;1.23;;;0.90;;
20729;SDS011;10526;50.850;12.928;2023-04-24T00:58:30;2.33;;;1.00;;
20729;SDS011;10526;50.850;12.928;2023-04-24T01:02:53;1.25;;;0.90;;
20729;SDS011;10526;50.850;12.928;2023-04-24T01:07:16;1.00;;;0.93;;
20729;SDS011;10526;50.850;12.928;2023-04-24T01:11:44;4.07;;;1.25;;
20729;SDS011;10526;50.850;12.928;2023-04-24T01:16:06;1.50;;;0.88;;
20729;SDS011;10526;50.850;12.928;2023-04-24T01:20:29;2.65;;;1.10;;
20729;SDS011;10526;50.850;12.928;2023-04-24T01:24:52;1.25;;;0.95;;
20729;SDS011;10526;50.850;12.928;2023-04-24T01:29:15;1.23;;;1.02;;
20729;SDS011;10526;50.850;12.928;2023-04-24T01:33:37;0.60;;;0.60;;
20729;SDS011;10526;50.850;12.928;2023-04-24T01:37:59;2.20;;;0.85;;
20729;SDS011;10526;50.850;12.928;2023-04-24T01:42:21;1.77;;;1.02;;
20729;SDS011;10526;50.850;12.928;2023-04-24T01:46:44;1.02;;;0.75;;
20729;SDS011;10526;50.850;12.928;2023-04-24T01:51:06;1.35;;;0.90;;
20729;SDS011;10526;50.850;12.928;2023-04-24T01:55:28;1.40;;;0.80;;
20729;SDS011;10526;50.850;12.928;2023-04-24T01:59:50;1.55;;;1.00;;
20729;SDS011;10526;50.850;12.928;2023-04-24T02:04:13;2.25;;;1.20;;
20729;SDS011;10526;50.850;12.928;2023-04-24T02:08:36;2.30;;;1.10;;
20729;SDS011;10526;50.850;12.928;2023-04-24T02:12:59;2.38;;;1.10;;
20729;SDS011;10526;50.850;12.928;2023-04-24T02:17:21;1.17;;;0.75;;
20729;SDS011;10526;50.850;12.928;2023-04-24T02:21:43;1.80;;;1.23;;
20729;SDS011;10526;50.850;12.928;2023-04-24T02:26:06;0.93;;;0.80;;
20729;SDS011;10526;50.850;12.928;2023-04-24T02:30:28;2.28;;;1.13;;
20729;SDS011;10526;50.850;12.928;2023-04-24T02:34:50;3.17;;;0.95;;
20729;SDS011;10526;50.850;12.928;2023-04-24T02:39:12;1.70;;;1.17;;
20729;SDS011;10526;50.850;12.928;2023-04-24T02:43:35;0.82;;;0.50;;
20729;SDS011;10526;50.850;12.928;2023-04-24T02:47:57;4.75;;;1.15;;
20729;SDS011;10526;50.850;12.928;2023-04-24T02:52:19;1.10;;;1.00;;
20729;SDS011;10526;50.850;12.928;2023-04-24T02:56:41;3.03;;;1.08;;
20729;SDS011;10526;50.850;12.928;2023-04-24T03:01:04;3.60;;;1.35;;
20729;SDS011;10526;50.850;12.928;2023-04-24T03:05:26;0.95;;;0.75;;
20729;SDS011;10526;50.850;12.928;2023-04-24T03:09:48;3.25;;;1.25;;
20729;SDS011;10526;50.850;12.928;2023-04-24T03:14:11;2.30;;;1.15;;
20729;SDS011;10526;50.850;12.928;2023-04-24T03:18:33;1.83;;;1.23;;
20729;SDS011;10526;50.850;12.928;2023-04-24T03:22:55;5.82;;;1.38;;
20729;SDS011;10526;50.850;12.928;2023-04-24T03:27:19;5.68;;;1.30;;
20729;SDS011;10526;50.850;12.928;2023-04-24T03:31:50;3.70;;;1.20;;
20729;SDS011;10526;50.850;12.928;2023-04-24T03:36:12;1.98;;;1.30;;
20729;SDS011;10526;50.850;12.928;2023-04-24T03:40:35;1.52;;;0.95;;
20729;SDS011;10526;50.850;12.928;2023-04-24T03:45:07;1.95;;;1.38;;
20729;SDS011;10526;50.850;12.928;2023-04-24T03:49:33;5.95;;;1.50;;
20729;SDS011;10526;50.850;12.928;2023-04-24T03:53:55;3.22;;;1.35;;
20729;SDS011;10526;50.850;12.928;2023-04-24T03:58:22;1.27;;;1.02;;
20729;SDS011;10526;50.850;12.928;2023-04-24T04:02:45;2.58;;;1.10;;
20729;SDS011;10526;50.850;12.928;2023-04-24T04:07:08;7.32;;;1.73;;
20729;SDS011;10526;50.850;12.928;2023-04-24T04:11:31;1.25;;;0.90;;
20729;SDS011;10526;50.850;12.928;2023-04-24T04:15:53;2.42;;;1.40;;
20729;SDS011;10526;50.850;12.928;2023-04-24T04:20:15;1.67;;;1.25;;
20729;SDS011;10526;50.850;12.928;2023-04-24T04:24:38;1.92;;;0.95;;
20729;SDS011;10526;50.850;12.928;2023-04-24T04:29:03;2.85;;;1.08;;
20729;SDS011;10526;50.850;12.928;2023-04-24T04:33:27;5.18;;;1.60;;
20729;SDS011;10526;50.850;12.928;2023-04-24T04:37:50;2.22;;;1.23;;
20729;SDS011;10526;50.850;12.928;2023-04-24T04:42:38;5.18;;;1.60;;
20729;SDS011;10526;50.850;12.928;2023-04-24T04:47:02;5.45;;;1.45;;
20729;SDS011;10526;50.850;12.928;2023-04-24T04:51:29;2.42;;;1.42;;
20729;SDS011;10526;50.850;12.928;2023-04-24T04:55:52;1.15;;;1.05;;
20729;SDS011;10526;50.850;12.928;2023-04-24T05:00:18;1.83;;;1.15;;
20729;SDS011;10526;50.850;12.928;2023-04-24T05:04:45;1.67;;;0.93;;
20729;SDS011;10526;50.850;12.928;2023-04-24T05:09:10;2.47;;;1.23;;
20729;SDS011;10526;50.850;12.928;2023-04-24T05:13:39;4.25;;;1.40;;
20729;SDS011;10526;50.850;12.928;2023-04-24T05:18:19;2.97;;;1.23;;
20729;SDS011;10526;50.850;12.928;2023-04-24T05:22:42;2.90;;;1.40;;
20729;SDS011;10526;50.850;12.928;2023-04-24T05:27:04;5.07;;;1.40;;
20729;SDS011;10526;50.850;12.928;2023-04-24T05:31:34;1.92;;;1.27;;
20729;SDS011;10526;50.850;12.928;2023-04-24T05:35:56;3.70;;;1.40;;
20729;SDS011;10526;50.850;12.928;2023-04-24T05:40:18;2.58;;;1.02;;
20729;SDS011;10526;50.850;12.928;2023-04-24T05:44:42;2.38;;;1.08;;
20729;SDS011;10526;50.850;12.928;2023-04-24T05:49:04;1.02;;;0.85;;
20729;SDS011;10526;50.850;12.928;2023-04-24T05:53:28;3.70;;;1.33;;
20729;SDS011;10526;50.850;12.928;2023-04-24T05:57:51;2.30;;;1.00;;
20729;SDS011;10526;50.850;12.928;2023-04-24T06:02:14;2.85;;;1.15;;
20729;SDS011;10526;50.850;12.928;2023-04-24T06:06:38;1.73;;;1.08;;
20729;SDS011;10526;50.850;12.928;2023-04-24T06:11:01;1.88;;;1.13;;
20729;SDS011;10526;50.850;12.928;2023-04-24T06:15:27;1.75;;;0.70;;
20729;SDS011;10526;50.850;12.928;2023-04-24T06:20:04;1.45;;;0.90;;
20729;SDS011;10526;50.850;12.928;2023-04-24T06:24:28;1.35;;;0.77;;
20729;SDS011;10526;50.850;12.928;2023-04-24T06:28:52;1.55;;;0.90;;
20729;SDS011;10526;50.850;12.928;2023-04-24T06:33:18;3.78;;;1.02;;
20729;SDS011;10526;50.850;12.928;2023-04-24T06:37:43;2.90;;;1.20;;
20729;SDS011;10526;50.850;12.928;2023-04-24T06:42:05;1.75;;;0.98;;
20729;SDS011;10526;50.850;12.928;2023-04-24T06:46:29;3.92;;;1.15;;
20729;SDS011;10526;50.850;12.928;2023-04-24T06:50:51;2.20;;;1.23;;
20729;SDS011;10526;50.850;12.928;2023-04-24T06:55:13;1.95;;;1.20;;
20729;SDS011;10526;50.850;12.928;2023-04-24T06:59:37;7.53;;;1.33;;
20729;SDS011;10526;50.850;12.928;2023-04-24T07:04:00;2.10;;;1.23;;
20729;SDS011;10526;50.850;12.928;2023-04-24T07:08:22;1.00;;;0.90;;
20729;SDS011;10526;50.850;12.928;2023-04-24T07:12:44;4.78;;;1.40;;
20729;SDS011;10526;50.850;12.928;2023-04-24T07:17:05;1.67;;;0.95;;
20729;SDS011;10526;50.850;12.928;2023-04-24T07:21:27;7.63;;;1.58;;
20729;SDS011;10526;50.850;12.928;2023-04-24T07:25:49;10.73;;;1.58;;
20729;SDS011;10526;50.850;12.928;2023-04-24T07:30:12;3.25;;;1.42;;
20729;SDS011;10526;50.850;12.928;2023-04-24T07:34:34;4.15;;;1.00;;
20729;SDS011;10526;50.850;12.928;2023-04-24T07:38:56;4.00;;;1.27;;
20729;SDS011;10526;50.850;12.928;2023-04-24T07:43:19;4.72;;;1.23;;
20729;SDS011;10526;50.850;12.928;2023-04-24T07:47:42;6.28;;;1.40;;
20729;SDS011;10526;50.850;12.928;2023-04-24T07:52:06;2.08;;;0.75;;
20729;SDS011;10526;50.850;12.928;2023-04-24T07:56:28;1.63;;;0.80;;
20729;SDS011;10526;50.850;12.928;2023-04-24T08:00:52;2.30;;;1.02;;
20729;SDS011;10526;50.850;12.928;2023-04-24T08:05:14;3.03;;;1.10;;
20729;SDS011;10526;50.850;12.928;2023-04-24T08:09:37;3.38;;;0.82;;
20729;SDS011;10526;50.850;12.928;2023-04-24T08:13:59;3.67;;;1.20;;
20729;SDS011;10526;50.850;12.928;2023-04-24T08:18:22;1.42;;;0.80;;
20729;SDS011;10526;50.850;12.928;2023-04-24T08:22:44;1.75;;;1.10;;
20729;SDS011;10526;50.850;12.928;2023-04-24T08:27:09;9.82;;;1.77;;
20729;SDS011;10526;50.850;12.928;2023-04-24T08:31:32;2.22;;;0.90;;
20729;SDS011;10526;50.850;12.928;2023-04-24T08:35:54;3.25;;;1.33;;
20729;SDS011;10526;50.850;12.928;2023-04-24T08:40:16;2.40;;;1.02;;
20729;SDS011;10526;50.850;12.928;2023-04-24T08:44:38;3.72;;;1.08;;
20729;SDS011;10526;50.850;12.928;2023-04-24T08:49:01;2.08;;;0.93;;
20729;SDS011;10526;50.850;12.928;2023-04-24T08:53:24;1.30;;;0.80;;
20729;SDS011;10526;50.850;12.928;2023-04-24T08:57:52;4.07;;;1.23;;
20729;SDS011;10526;50.850;12.928;2023-04-24T09:02:14;3.08;;;0.75;;
20729;SDS011;10526;50.850;12.928;2023-04-24T09:06:38;1.33;;;0.77;;
20729;SDS011;10526;50.850;12.928;2023-04-24T09:11:01;11.13;;;1.30;;
20729;SDS011;10526;50.850;12.928;2023-04-24T09:15:25;2.75;;;1.13;;
20729;SDS011;10526;50.850;12.928;2023-04-24T09:19:47;9.52;;;1.63;;
20729;SDS011;10526;50.850;12.928;2023-04-24T09:24:14;2.58;;;0.95;;
20729;SDS011;10526;50.850;12.928;2023-04-24T09:28:39;2.45;;;1.33;;
20729;SDS011;10526;50.850;12.928;2023-04-24T09:33:12;4.35;;;1.30;;
20729;SDS011;10526;50.850;12.928;2023-04-24T09:37:37;7.80;;;1.17;;
20729;SDS011;10526;50.850;12.928;2023-04-24T09:42:05;3.17;;;1.30;;
20729;SDS011;10526;50.850;12.928;2023-04-24T09:46:30;2.05;;;0.90;;
20729;SDS011;10526;50.850;12.928;2023-04-24T09:50:52;3.60;;;0.90;;
20729;SDS011;10526;50.850;12.928;2023-04-24T09:55:16;4.80;;;1.65;;
20729;SDS011;10526;50.850;12.928;2023-04-24T09:59:45;2.63;;;0.60;;
20729;SDS011;10526;50.850;12.928;2023-04-24T10:04:17;0.77;;;0.60;;
20729;SDS011;10526;50.850;12.928;2023-04-24T10:08:45;0.22;;;0.22;;
20729;SDS011;10526;50.850;12.928;2023-04-24T10:13:09;1.25;;;0.55;;
20729;SDS011;10526;50.850;12.928;2023-04-24T10:17:32;1.00;;;0.68;;
20729;SDS011;10526;50.850;12.928;2023-04-24T10:21:56;1.30;;;0.60;;
20729;SDS011;10526;50.850;12.928;2023-04-24T10:26:19;1.75;;;0.85;;
20729;SDS011;10526;50.850;12.928;2023-04-24T10:30:43;7.97;;;1.50;;
20729;SDS011;10526;50.850;12.928;2023-04-24T10:35:06;1.48;;;0.57;;
20729;SDS011;10526;50.850;12.928;2023-04-24T10:39:30;3.15;;;0.82;;
20729;SDS011;10526;50.850;12.928;2023-04-24T10:44:07;1.40;;;0.88;;
20729;SDS011;10526;50.850;12.928;2023-04-24T10:48:34;2.22;;;0.60;;
20729;SDS011;10526;50.850;12.928;2023-04-24T10:53:06;3.20;;;0.40;;
20729;SDS011;10526;50.850;12.928;2023-04-24T10:57:36;0.73;;;0.50;;
20729;SDS011;10526;50.850;12.928;2023-04-24T11:01:58;2.30;;;0.68;;
20729;SDS011;10526;50.850;12.928;2023-04-24T11:06:20;2.40;;;0.80;;
20729;SDS011;10526;50.850;12.928;2023-04-24T11:11:07;2.05;;;1.20;;
20729;SDS011;10526;50.850;12.928;2023-04-24T11:15:32;6.25;;;1.10;;
20729;SDS011;10526;50.850;12.928;2023-04-24T11:19:55;1.00;;;0.50;;
20729;SDS011;10526;50.850;12.928;2023-04-24T11:29:13;2.28;;;0.90;;
20729;SDS011;10526;50.850;12.928;2023-04-24T11:33:38;6.50;;;0.80;;
20729;SDS011;10526;50.850;12.928;2023-04-24T11:38:00;2.50;;;0.93;;
20729;SDS011;10526;50.850;12.928;2023-04-24T11:42:44;2.35;;;0.65;;
20729;SDS011;10526;50.850;12.928;2023-04-24T11:47:08;2.78;;;0.73;;
20729;SDS011;10526;50.850;12.928;2023-04-24T11:51:30;2.78;;;1.10;;
20729;SDS011;10526;50.850;12.928;2023-04-24T11:56:11;1.33;;;1.02;;
20729;SDS011;10526;50.850;12.928;2023-04-24T12:00:33;5.63;;;1.42;;
20729;SDS011;10526;50.850;12.928;2023-04-24T12:04:55;3.15;;;0.85;;
20729;SDS011;10526;50.850;12.928;2023-04-24T12:09:18;2.10;;;0.80;;
20729;SDS011;10526;50.850;12.928;2023-04-24T12:13:40;1.58;;;1.05;;
20729;SDS011;10526;50.850;12.928;2023-04-24T12:18:03;0.75;;;0.57;;
20729;SDS011;10526;50.850;12.928;2023-04-24T12:22:25;2.05;;;1.05;;
20729;SDS011;10526;50.850;12.928;2023-04-24T12:26:48;3.42;;;1.38;;
20729;SDS011;10526;50.850;12.928;2023-04-24T12:31:10;3.63;;;1.10;;
20729;SDS011;10526;50.850;12.928;2023-04-24T12:35:33;1.45;;;0.80;;
20729;SDS011;10526;50.850;12.928;2023-04-24T12:44:34;2.13;;;1.05;;
20729;SDS011;10526;50.850;12.928;2023-04-24T12:48:58;2.13;;;1.30;;
20729;SDS011;10526;50.850;12.928;2023-04-24T12:53:20;2.00;;;1.00;;
20729;SDS011;10526;50.850;12.928;2023-04-24T12:57:42;2.13;;;1.23;;
20729;SDS011;10526;50.850;12.928;2023-04-24T13:02:04;4.43;;;1.00;;
20729;SDS011;10526;50.850;12.928;2023-04-24T13:06:28;3.22;;;1.15;;
20729;SDS011;10526;50.850;12.928;2023-04-24T13:10:50;0.70;;;0.70;;
20729;SDS011;10526;50.850;12.928;2023-04-24T13:15:13;1.55;;;0.88;;
20729;SDS011;10526;50.850;12.928;2023-04-24T13:19:39;8.52;;;1.17;;
20729;SDS011;10526;50.850;12.928;2023-04-24T13:24:03;1.33;;;0.98;;
20729;SDS011;10526;50.850;12.928;2023-04-24T13:28:26;1.92;;;1.05;;
20729;SDS011;10526;50.850;12.928;2023-04-24T13:32:48;2.05;;;1.35;;
20729;SDS011;10526;50.850;12.928;2023-04-24T13:37:10;1.73;;;1.20;;
20729;SDS011;10526;50.850;12.928;2023-04-24T13:41:33;5.70;;;1.20;;
20729;SDS011;10526;50.850;12.928;2023-04-24T13:45:57;4.13;;;1.98;;
20729;SDS011;10526;50.850;12.928;2023-04-24T13:50:20;1.33;;;1.02;;
20729;SDS011;10526;50.850;12.928;2023-04-24T13:54:42;10.75;;;1.88;;
20729;SDS011;10526;50.850;12.928;2023-04-24T13:59:04;12.65;;;1.77;;
20729;SDS011;10526;50.850;12.928;2023-04-24T14:03:26;1.92;;;1.15;;
20729;SDS011;10526;50.850;12.928;2023-04-24T14:07:49;3.28;;;1.08;;
20729;SDS011;10526;50.850;12.928;2023-04-24T14:12:11;3.58;;;1.40;;
20729;SDS011;10526;50.850;12.928;2023-04-24T14:16:34;14.70;;;1.40;;
20729;SDS011;10526;50.850;12.928;2023-04-24T14:20:57;3.35;;;1.30;;
20729;SDS011;10526;50.850;12.928;2023-04-24T14:25:19;4.28;;;1.63;;
20729;SDS011;10526;50.850;12.928;2023-04-24T14:29:41;2.38;;;1.15;;
20729;SDS011;10526;50.850;12.928;2023-04-24T14:34:03;2.75;;;1.38;;
20729;SDS011;10526;50.850;12.928;2023-04-24T14:38:25;2.03;;;1.40;;
20729;SDS011;10526;50.850;12.928;2023-04-24T14:42:47;3.13;;;1.35;;
20729;SDS011;10526;50.850;12.928;2023-04-24T14:47:10;3.03;;;1.42;;
20729;SDS011;10526;50.850;12.928;2023-04-24T14:51:32;3.95;;;1.30;;
20729;SDS011;10526;50.850;12.928;2023-04-24T14:55:54;6.13;;;1.88;;
20729;SDS011;10526;50.850;12.928;2023-04-24T15:00:17;2.97;;;1.40;;
20729;SDS011;10526;50.850;12.928;2023-04-24T15:04:41;1.98;;;1.20;;
20729;SDS011;10526;50.850;12.928;2023-04-24T15:09:04;3.05;;;1.48;;
20729;SDS011;10526;50.850;12.928;2023-04-24T15:13:26;1.80;;;1.15;;
20729;SDS011;10526;50.850;12.928;2023-04-24T15:17:48;2.50;;;1.13;;
20729;SDS011;10526;50.850;12.928;2023-04-24T15:22:13;3.10;;;1.05;;
20729;SDS011;10526;50.850;12.928;2023-04-24T15:26:38;1.83;;;0.85;;
20729;SDS011;10526;50.850;12.928;2023-04-24T15:31:00;0.98;;;0.88;;
20729;SDS011;10526;50.850;12.928;2023-04-24T15:35:22;0.90;;;0.80;;
20729;SDS011;10526;50.850;12.928;2023-04-24T15:39:45;1.75;;;0.98;;
20729;SDS011;10526;50.850;12.928;2023-04-24T15:44:07;1.30;;;0.98;;
20729;SDS011;10526;50.850;12.928;2023-04-24T15:48:29;1.83;;;1.17;;
20729;SDS011;10526;50.850;12.928;2023-04-24T15:52:51;4.05;;;1.35;;
20729;SDS011;10526;50.850;12.928;2023-04-24T15:57:14;1.17;;;0.98;;
20729;SDS011;10526;50.850;12.928;2023-04-24T16:01:37;0.88;;;0.77;;
20729;SDS011;10526;50.850;12.928;2023-04-24T16:06:00;2.45;;;1.10;;
20729;SDS011;10526;50.850;12.928;2023-04-24T16:10:22;0.90;;;0.90;;
20729;SDS011;10526;50.850;12.928;2023-04-24T16:14:44;3.28;;;1.35;;
20729;SDS011;10526;50.850;12.928;2023-04-24T16:19:07;1.05;;;0.93;;
20729;SDS011;10526;50.850;12.928;2023-04-24T16:23:29;2.90;;;1.50;;
20729;SDS011;10526;50.850;12.928;2023-04-24T16:27:51;2.55;;;1.20;;
20729;SDS011;10526;50.850;12.928;2023-04-24T16:32:14;8.40;;;1.35;;
20729;SDS011;10526;50.850;12.928;2023-04-24T16:36:36;3.25;;;1.40;;
20729;SDS011;10526;50.850;12.928;2023-04-24T16:40:58;1.48;;;1.10;;
20729;SDS011;10526;50.850;12.928;2023-04-24T16:45:20;1.90;;;1.27;;
20729;SDS011;10526;50.850;12.928;2023-04-24T16:49:43;1.63;;;1.05;;
20729;SDS011;10526;50.850;12.928;2023-04-24T16:54:05;2.25;;;1.40;;
20729;SDS011;10526;50.850;12.928;2023-04-24T16:58:27;5.90;;;1.08;;
20729;SDS011;10526;50.850;12.928;2023-04-24T17:02:49;2.03;;;1.10;;
20729;SDS011;10526;50.850;12.928;2023-04-24T17:07:12;1.88;;;1.27;;
20729;SDS011;10526;50.850;12.928;2023-04-24T17:11:34;2.13;;;1.33;;
20729;SDS011;10526;50.850;12.928;2023-04-24T17:15:57;5.47;;;2.00;;
20729;SDS011;10526;50.850;12.928;2023-04-24T17:20:19;3.72;;;1.45;;
20729;SDS011;10526;50.850;12.928;2023-04-24T17:24:44;5.00;;;1.10;;
20729;SDS011;10526;50.850;12.928;2023-04-24T17:29:06;3.75;;;1.42;;
20729;SDS011;10526;50.850;12.928;2023-04-24T17:33:35;2.95;;;1.27;;
20729;SDS011;10526;50.850;12.928;2023-04-24T17:37:57;4.00;;;1.52;;
20729;SDS011;10526;50.850;12.928;2023-04-24T17:42:19;1.58;;;1.02;;
20729;SDS011;10526;50.850;12.928;2023-04-24T17:46:41;2.42;;;1.13;;
20729;SDS011;10526;50.850;12.928;2023-04-24T17:51:04;6.82;;;2.03;;
20729;SDS011;10526;50.850;12.928;2023-04-24T17:55:26;1.75;;;1.27;;
20729;SDS011;10526;50.850;12.928;2023-04-24T17:59:48;1.77;;;1.13;;
20729;SDS011;10526;50.850;12.928;2023-04-24T18:04:10;2.75;;;1.13;;
20729;SDS011;10526;50.850;12.928;2023-04-24T18:08:32;1.33;;;1.05;;
20729;SDS011;10526;50.850;12.928;2023-04-24T18:12:56;3.83;;;1.00;;
20729;SDS011;10526;50.850;12.928;2023-04-24T18:17:19;1.65;;;1.08;;
20729;SDS011;10526;50.850;12.928;2023-04-24T18:21:46;3.13;;;1.02;;
20729;SDS011;10526;50.850;12.928;2023-04-24T18:26:08;3.45;;;1.10;;
20729;SDS011;10526;50.850;12.928;2023-04-24T18:30:30;1.42;;;1.27;;
20729;SDS011;10526;50.850;12.928;2023-04-24T18:34:53;4.85;;;1.85;;
20729;SDS011;10526;50.850;12.928;2023-04-24T18:39:15;3.58;;;1.80;;
20729;SDS011;10526;50.850;12.928;2023-04-24T18:43:37;2.55;;;1.25;;
20729;SDS011;10526;50.850;12.928;2023-04-24T18:48:00;1.67;;;1.15;;
20729;SDS011;10526;50.850;12.928;2023-04-24T18:52:22;2.90;;;1.35;;
20729;SDS011;10526;50.850;12.928;2023-04-24T18:56:45;2.90;;;1.27;;
20729;SDS011;10526;50.850;12.928;2023-04-24T19:01:07;2.80;;;1.38;;
20729;SDS011;10526;50.850;12.928;2023-04-24T19:05:29;2.60;;;1.40;;
20729;SDS011;10526;50.850;12.928;2023-04-24T19:09:51;2.17;;;1.45;;
20729;SDS011;10526;50.850;12.928;2023-04-24T19:14:13;3.67;;;1.63;;
20729;SDS011;10526;50.850;12.928;2023-04-24T19:18:36;1.90;;;1.13;;
20729;SDS011;10526;50.850;12.928;2023-04-24T19:22:58;3.30;;;1.40;;
20729;SDS011;10526;50.850;12.928;2023-04-24T19:27:21;3.28;;;1.50;;
20729;SDS011;10526;50.850;12.928;2023-04-24T19:31:43;5.28;;;1.88;;
20729;SDS011;10526;50.850;12.928;2023-04-24T19:36:07;2.42;;;1.25;;
20729;SDS011;10526;50.850;12.928;2023-04-24T19:40:29;4.57;;;1.58;;
20729;SDS011;10526;50.850;12.928;2023-04-24T19:44:52;3.63;;;1.70;;
20729;SDS011;10526;50.850;12.928;2023-04-24T19:49:14;6.03;;;1.85;;
20729;SDS011;10526;50.850;12.928;2023-04-24T19:53:37;12.60;;;2.17;;
20729;SDS011;10526;50.850;12.928;2023-04-24T19:57:59;5.30;;;1.60;;
20729;SDS011;10526;50.850;12.928;2023-04-24T20:02:21;3.78;;;1.58;;
20729;SDS011;10526;50.850;12.928;2023-04-24T20:06:43;3.17;;;1.50;;
20729;SDS011;10526;50.850;12.928;2023-04-24T20:11:05;2.63;;;1.52;;
20729;SDS011;10526;50.850;12.928;2023-04-24T20:15:27;2.15;;;1.38;;
20729;SDS011;10526;50.850;12.928;2023-04-24T20:19:50;5.75;;;1.92;;
20729;SDS011;10526;50.850;12.928;2023-04-24T20:24:12;2.45;;;1.48;;
20729;SDS011;10526;50.850;12.928;2023-04-24T20:28:36;3.20;;;1.50;;
20729;SDS011;10526;50.850;12.928;2023-04-24T20:32:58;4.65;;;1.77;;
20729;SDS011;10526;50.850;12.928;2023-04-24T20:37:20;5.32;;;1.73;;
20729;SDS011;10526;50.850;12.928;2023-04-24T20:41:44;3.50;;;1.67;;
20729;SDS011;10526;50.850;12.928;2023-04-24T20:46:07;6.50;;;1.98;;
20729;SDS011;10526;50.850;12.928;2023-04-24T20:50:29;7.53;;;2.63;;
20729;SDS011;10526;50.850;12.928;2023-04-24T20:54:53;4.05;;;1.83;;
20729;SDS011;10526;50.850;12.928;2023-04-24T20:59:15;7.10;;;1.88;;
20729;SDS011;10526;50.850;12.928;2023-04-24T21:03:37;2.13;;;1.42;;
20729;SDS011;10526;50.850;12.928;2023-04-24T21:07:59;4.03;;;1.92;;
20729;SDS011;10526;50.850;12.928;2023-04-24T21:12:21;4.53;;;1.83;;
20729;SDS011;10526;50.850;12.928;2023-04-24T21:16:43;4.30;;;1.88;;
20729;SDS011;10526;50.850;12.928;2023-04-24T21:21:08;7.15;;;2.15;;
20729;SDS011;10526;50.850;12.928;2023-04-24T21:25:31;9.43;;;2.47;;
20729;SDS011;10526;50.850;12.928;2023-04-24T21:29:54;4.63;;;2.33;;
20729;SDS011;10526;50.850;12.928;2023-04-24T21:34:16;6.78;;;2.30;;
20729;SDS011;10526;50.850;12.928;2023-04-24T21:38:38;7.07;;;2.75;;
20729;SDS011;10526;50.850;12.928;2023-04-24T21:43:01;7.18;;;3.03;;
20729;SDS011;10526;50.850;12.928;2023-04-24T21:47:23;6.88;;;2.50;;
20729;SDS011;10526;50.850;12.928;2023-04-24T21:51:45;4.32;;;2.28;;
20729;SDS011;10526;50.850;12.928;2023-04-24T21:56:08;5.13;;;2.35;;
20729;SDS011;10526;50.850;12.928;2023-04-24T22:00:30;8.00;;;2.97;;
20729;SDS011;10526;50.850;12.928;2023-04-24T22:04:54;7.40;;;2.70;;
20729;SDS011;10526;50.850;12.928;2023-04-24T22:09:16;8.02;;;2.90;;
20729;SDS011;10526;50.850;12.928;2023-04-24T22:13:38;7.63;;;3.00;;
20729;SDS011;10526;50.850;12.928;2023-04-24T22:18:01;8.07;;;3.10;;
20729;SDS011;10526;50.850;12.928;2023-04-24T22:22:25;9.45;;;3.55;;
20729;SDS011;10526;50.850;12.928;2023-04-24T22:26:48;7.18;;;3.17;;
20729;SDS011;10526;50.850;12.928;2023-04-24T22:31:10;9.25;;;3.65;;
20729;SDS011;10526;50.850;12.928;2023-04-24T22:35:32;8.75;;;3.00;;
20729;SDS011;10526;50.850;12.928;2023-04-24T22:39:56;8.57;;;3.53;;
20729;SDS011;10526;50.850;12.928;2023-04-24T22:44:21;9.98;;;3.30;;
20729;SDS011;10526;50.850;12.928;2023-04-24T22:48:43;9.00;;;3.92;;
20729;SDS011;10526;50.850;12.928;2023-04-24T22:53:07;9.02;;;3.72;;
20729;SDS011;10526;50.850;12.928;2023-04-24T22:57:29;10.80;;;3.67;;
20729;SDS011;10526;50.850;12.928;2023-04-24T23:01:51;7.93;;;3.40;;
20729;SDS011;10526;50.850;12.928;2023-04-24T23:06:13;8.05;;;3.63;;
20729;SDS011;10526;50.850;12.928;2023-04-24T23:10:35;9.60;;;3.92;;
20729;SDS011;10526;50.850;12.928;2023-04-24T23:14:58;10.40;;;3.92;;
20729;SDS011;10526;50.850;12.928;2023-04-24T23:19:21;10.05;;;4.18;;
20729;SDS011;10526;50.850;12.928;2023-04-24T23:23:43;12.45;;;3.78;;
20729;SDS011;10526;50.850;12.928;2023-04-24T23:28:05;10.43;;;4.13;;
20729;SDS011;10526;50.850;12.928;2023-04-24T23:32:27;10.10;;;4.20;;
20729;SDS011;10526;50.850;12.928;2023-04-24T23:36:49;11.10;;;4.13;;
20729;SDS011;10526;50.850;12.928;2023-04-24T23:41:14;11.25;;;4.55;;
20729;SDS011;10526;50.850;12.928;2023-04-24T23:45:36;10.50;;;4.85;;
20729;SDS011;10526;50.850;12.928;2023-04-24T23:49:58;13.55;;;4.85;;
20729;SDS011;10526;50.850;12.928;2023-04-24T23:54:21;12.25;;;4.72;;
20729;SDS011;10526;50.850;12.928;2023-04-24T23:58:43;14.20;;;4.72;;
